sensor_id;sensor_type;location;lat;lon;timestamp;pressure;altitude;pressure_sealevel;temperature;humidity
39301;BME280;25019;42.626;23.380;2023-08-21T00:01:28;94770.16;;;21.96;64.29
39301;BME280;25019;42.626;23.380;2023-08-21T00:03:54;94768.22;;;21.97;64.66
39301;BME280;25019;42.626;23.380;2023-08-21T00:06:19;94771.38;;;21.90;64.93
39301;BME280;25019;42.626;23.380;2023-08-21T00:08:45;94771.50;;;21.85;65.00
39301;BME280;25019;42.626;23.380;2023-08-21T00:11:11;94774.53;;;21.83;65.46
39301;BME280;25019;42.626;23.380;2023-08-21T00:13:37;94772.63;;;21.84;65.73
39301;BME280;25019;42.626;23.380;2023-08-21T00:16:03;94764.63;;;21.79;65.74
39301;BME280;25019;42.626;23.380;2023-08-21T00:18:28;94770.19;;;21.74;65.68
39301;BME280;25019;42.626;23.380;2023-08-21T00:20:54;94772.91;;;21.74;66.00
39301;BME280;25019;42.626;23.380;2023-08-21T00:23:20;94774.00;;;21.73;65.85
39301;BME280;25019;42.626;23.380;2023-08-21T00:25:47;94770.19;;;21.74;66.09
39301;BME280;25019;42.626;23.380;2023-08-21T00:28:13;94774.00;;;21.73;66.08
39301;BME280;25019;42.626;23.380;2023-08-21T00:30:38;94771.72;;;21.66;66.57
39301;BME280;25019;42.626;23.380;2023-08-21T00:33:04;94771.81;;;21.61;66.43
39301;BME280;25019;42.626;23.380;2023-08-21T00:35:30;94664.66;;;20.93;66.55
39301;BME280;25019;42.626;23.380;2023-08-21T00:37:55;94753.75;;;21.38;66.92
39301;BME280;25019;42.626;23.380;2023-08-21T00:40:21;94774.31;;;21.48;66.96
39301;BME280;25019;42.626;23.380;2023-08-21T00:42:48;94770.94;;;21.43;67.27
39301;BME280;25019;42.626;23.380;2023-08-21T00:45:14;94777.88;;;21.35;67.78
39301;BME280;25019;42.626;23.380;2023-08-21T00:47:40;94773.56;;;21.34;67.06
39301;BME280;25019;42.626;23.380;2023-08-21T00:50:07;94660.44;;;20.64;67.50
39301;BME280;25019;42.626;23.380;2023-08-21T00:52:34;94773.16;;;21.40;67.82
39301;BME280;25019;42.626;23.380;2023-08-21T00:55:00;94779.19;;;21.37;67.23
39301;BME280;25019;42.626;23.380;2023-08-21T00:57:26;94776.91;;;21.31;67.09
39301;BME280;25019;42.626;23.380;2023-08-21T00:59:53;94781.31;;;21.27;67.50
39301;BME280;25019;42.626;23.380;2023-08-21T01:02:19;94778.41;;;21.23;67.09
39301;BME280;25019;42.626;23.380;2023-08-21T01:04:44;94784.31;;;21.25;67.53
39301;BME280;25019;42.626;23.380;2023-08-21T01:07:13;94800.84;;;21.23;68.12
39301;BME280;25019;42.626;23.380;2023-08-21T01:09:45;94793.66;;;21.19;67.75
39301;BME280;25019;42.626;23.380;2023-08-21T01:12:23;94797.94;;;21.20;68.17
39301;BME280;25019;42.626;23.380;2023-08-21T01:15:00;94800.16;;;21.18;68.81
39301;BME280;25019;42.626;23.380;2023-08-21T01:17:29;94729.03;;;20.77;68.90
39301;BME280;25019;42.626;23.380;2023-08-21T01:19:56;94721.91;;;20.67;69.01
39301;BME280;25019;42.626;23.380;2023-08-21T01:22:26;94785.72;;;21.00;68.96
39301;BME280;25019;42.626;23.380;2023-08-21T01:24:54;94775.47;;;20.88;69.17
39301;BME280;25019;42.626;23.380;2023-08-21T01:27:20;94780.25;;;20.91;68.85
39301;BME280;25019;42.626;23.380;2023-08-21T01:29:47;94782.03;;;20.95;69.55
39301;BME280;25019;42.626;23.380;2023-08-21T01:32:37;94794.66;;;20.86;70.61
39301;BME280;25019;42.626;23.380;2023-08-21T01:35:06;94789.47;;;20.76;70.92
39301;BME280;25019;42.626;23.380;2023-08-21T01:37:32;94776.47;;;20.64;70.85
39301;BME280;25019;42.626;23.380;2023-08-21T01:39:59;94781.50;;;20.57;71.25
39301;BME280;25019;42.626;23.380;2023-08-21T01:42:25;94786.59;;;20.58;71.46
39301;BME280;25019;42.626;23.380;2023-08-21T01:44:50;94790.97;;;20.54;71.28
39301;BME280;25019;42.626;23.380;2023-08-21T01:47:16;94783.03;;;20.49;71.30
39301;BME280;25019;42.626;23.380;2023-08-21T01:49:42;94796.38;;;20.54;71.47
39301;BME280;25019;42.626;23.380;2023-08-21T01:52:08;94761.56;;;20.30;71.12
39301;BME280;25019;42.626;23.380;2023-08-21T01:54:33;94787.78;;;20.52;70.62
39301;BME280;25019;42.626;23.380;2023-08-21T01:56:59;94733.50;;;20.17;70.65
39301;BME280;25019;42.626;23.380;2023-08-21T01:59:25;94783.50;;;20.51;70.71
39301;BME280;25019;42.626;23.380;2023-08-21T02:01:50;94674.06;;;19.80;70.99
39301;BME280;25019;42.626;23.380;2023-08-21T02:04:16;94779.31;;;20.45;71.00
39301;BME280;25019;42.626;23.380;2023-08-21T02:06:42;94780.09;;;20.45;71.15
39301;BME280;25019;42.626;23.380;2023-08-21T02:09:10;94774.22;;;20.29;72.54
39301;BME280;25019;42.626;23.380;2023-08-21T02:11:35;94778.84;;;20.29;72.82
39301;BME280;25019;42.626;23.380;2023-08-21T02:14:01;94779.94;;;20.28;73.00
39301;BME280;25019;42.626;23.380;2023-08-21T02:16:28;94670.91;;;19.50;72.72
39301;BME280;25019;42.626;23.380;2023-08-21T02:18:54;94786.72;;;20.25;72.56
39301;BME280;25019;42.626;23.380;2023-08-21T02:21:20;94763.25;;;20.12;72.99
39301;BME280;25019;42.626;23.380;2023-08-21T02:23:46;94779.13;;;20.27;72.93
39301;BME280;25019;42.626;23.380;2023-08-21T02:26:11;94778.03;;;20.28;72.86
39301;BME280;25019;42.626;23.380;2023-08-21T02:28:39;94780.22;;;20.26;72.50
39301;BME280;25019;42.626;23.380;2023-08-21T02:31:04;94722.19;;;19.87;72.67
39301;BME280;25019;42.626;23.380;2023-08-21T02:33:33;94776.25;;;20.24;72.35
39301;BME280;25019;42.626;23.380;2023-08-21T02:35:58;94773.44;;;20.15;72.32
39301;BME280;25019;42.626;23.380;2023-08-21T02:38:24;94771.84;;;20.14;72.18
39301;BME280;25019;42.626;23.380;2023-08-21T02:40:50;94661.09;;;19.40;72.58
39301;BME280;25019;42.626;23.380;2023-08-21T02:43:15;94769.06;;;20.05;72.72
39301;BME280;25019;42.626;23.380;2023-08-21T02:45:42;94780.22;;;20.12;72.73
39301;BME280;25019;42.626;23.380;2023-08-21T02:48:08;94781.91;;;20.08;73.31
39301;BME280;25019;42.626;23.380;2023-08-21T02:50:34;94777.91;;;19.91;74.18
39301;BME280;25019;42.626;23.380;2023-08-21T02:53:00;94774.59;;;19.81;74.79
39301;BME280;25019;42.626;23.380;2023-08-21T02:55:25;94780.66;;;19.72;75.30
39301;BME280;25019;42.626;23.380;2023-08-21T02:57:51;94759.38;;;19.57;75.79
39301;BME280;25019;42.626;23.380;2023-08-21T03:00:17;94744.88;;;19.39;76.20
39301;BME280;25019;42.626;23.380;2023-08-21T03:02:42;94786.00;;;19.58;76.48
39301;BME280;25019;42.626;23.380;2023-08-21T03:05:09;94782.63;;;19.53;76.35
39301;BME280;25019;42.626;23.380;2023-08-21T03:07:35;94779.94;;;19.53;76.83
39301;BME280;25019;42.626;23.380;2023-08-21T03:10:01;94776.53;;;19.47;76.91
39301;BME280;25019;42.626;23.380;2023-08-21T03:12:29;94782.69;;;19.48;77.04
39301;BME280;25019;42.626;23.380;2023-08-21T03:14:55;94784.88;;;19.45;77.07
39301;BME280;25019;42.626;23.380;2023-08-21T03:17:20;94788.16;;;19.42;77.10
39301;BME280;25019;42.626;23.380;2023-08-21T03:19:46;94785.06;;;19.35;77.26
39301;BME280;25019;42.626;23.380;2023-08-21T03:22:12;94741.47;;;19.00;77.55
39301;BME280;25019;42.626;23.380;2023-08-21T03:24:38;94797.28;;;19.27;77.52
39301;BME280;25019;42.626;23.380;2023-08-21T03:27:03;94804.66;;;19.22;77.66
39301;BME280;25019;42.626;23.380;2023-08-21T03:29:29;94803.88;;;19.21;77.72
39301;BME280;25019;42.626;23.380;2023-08-21T03:31:55;94802.03;;;19.16;78.22
39301;BME280;25019;42.626;23.380;2023-08-21T03:34:21;94697.84;;;18.46;78.38
39301;BME280;25019;42.626;23.380;2023-08-21T03:36:49;94800.75;;;19.14;78.62
39301;BME280;25019;42.626;23.380;2023-08-21T03:39:14;94800.50;;;19.10;78.72
39301;BME280;25019;42.626;23.380;2023-08-21T03:41:43;94803.50;;;19.09;78.80
39301;BME280;25019;42.626;23.380;2023-08-21T03:44:09;94797.69;;;19.01;78.85
39301;BME280;25019;42.626;23.380;2023-08-21T03:46:34;94782.72;;;18.95;78.78
39301;BME280;25019;42.626;23.380;2023-08-21T03:49:00;94794.91;;;19.07;79.24
39301;BME280;25019;42.626;23.380;2023-08-21T03:51:26;94801.31;;;19.11;78.83
39301;BME280;25019;42.626;23.380;2023-08-21T03:53:52;94792.75;;;19.09;78.88
39301;BME280;25019;42.626;23.380;2023-08-21T03:56:17;94791.44;;;19.06;78.96
39301;BME280;25019;42.626;23.380;2023-08-21T03:58:44;94795.94;;;19.11;78.68
39301;BME280;25019;42.626;23.380;2023-08-21T04:01:10;94804.84;;;19.25;78.41
39301;BME280;25019;42.626;23.380;2023-08-21T04:03:36;94803.91;;;19.35;78.36
39301;BME280;25019;42.626;23.380;2023-08-21T04:06:02;94804.31;;;19.42;77.92
39301;BME280;25019;42.626;23.380;2023-08-21T04:08:28;94749.28;;;19.15;77.36
39301;BME280;25019;42.626;23.380;2023-08-21T04:10:54;94802.41;;;19.62;77.03
39301;BME280;25019;42.626;23.380;2023-08-21T04:13:24;94807.44;;;19.83;76.35
39301;BME280;25019;42.626;23.380;2023-08-21T04:15:50;94810.38;;;20.00;75.18
39301;BME280;25019;42.626;23.380;2023-08-21T04:18:16;94808.00;;;20.27;74.86
39301;BME280;25019;42.626;23.380;2023-08-21T04:20:42;94793.50;;;20.50;72.71
39301;BME280;25019;42.626;23.380;2023-08-21T04:23:07;94814.13;;;20.97;71.51
39301;BME280;25019;42.626;23.380;2023-08-21T04:25:33;94809.94;;;21.28;69.58
39301;BME280;25019;42.626;23.380;2023-08-21T04:27:59;94759.72;;;21.27;68.45
39301;BME280;25019;42.626;23.380;2023-08-21T04:30:24;94794.22;;;21.75;67.37
39301;BME280;25019;42.626;23.380;2023-08-21T04:32:50;94805.59;;;22.26;65.87
39301;BME280;25019;42.626;23.380;2023-08-21T04:35:16;94810.81;;;22.63;64.01
39301;BME280;25019;42.626;23.380;2023-08-21T04:37:43;94804.97;;;22.96;63.19
39301;BME280;25019;42.626;23.380;2023-08-21T04:40:11;94806.75;;;23.36;62.03
39301;BME280;25019;42.626;23.380;2023-08-21T04:42:37;94799.53;;;23.67;60.42
39301;BME280;25019;42.626;23.380;2023-08-21T04:45:04;94781.78;;;23.87;58.86
39301;BME280;25019;42.626;23.380;2023-08-21T04:47:32;94802.97;;;24.41;58.16
39301;BME280;25019;42.626;23.380;2023-08-21T04:49:59;94806.81;;;24.79;56.93
39301;BME280;25019;42.626;23.380;2023-08-21T04:52:26;94821.53;;;25.20;55.75
39301;BME280;25019;42.626;23.380;2023-08-21T04:54:53;94820.59;;;25.58;54.54
39301;BME280;25019;42.626;23.380;2023-08-21T04:57:20;94755.66;;;25.57;53.92
39301;BME280;25019;42.626;23.380;2023-08-21T04:59:48;94812.75;;;26.24;52.63
39301;BME280;25019;42.626;23.380;2023-08-21T05:02:14;94820.34;;;26.56;51.62
39301;BME280;25019;42.626;23.380;2023-08-21T05:04:40;94823.91;;;26.81;50.40
39301;BME280;25019;42.626;23.380;2023-08-21T05:07:07;94823.03;;;27.05;49.80
39301;BME280;25019;42.626;23.380;2023-08-21T05:09:34;94816.31;;;27.28;49.21
39301;BME280;25019;42.626;23.380;2023-08-21T05:11:59;94833.75;;;27.51;48.95
39301;BME280;25019;42.626;23.380;2023-08-21T05:14:25;94831.88;;;27.68;48.76
39301;BME280;25019;42.626;23.380;2023-08-21T05:16:51;94816.50;;;27.76;49.06
39301;BME280;25019;42.626;23.380;2023-08-21T05:19:17;94821.03;;;28.00;48.12
39301;BME280;25019;42.626;23.380;2023-08-21T05:21:43;94841.94;;;28.24;47.24
39301;BME280;25019;42.626;23.380;2023-08-21T05:24:10;94838.16;;;28.45;46.61
39301;BME280;25019;42.626;23.380;2023-08-21T05:26:38;94833.22;;;28.67;46.28
39301;BME280;25019;42.626;23.380;2023-08-21T05:29:04;94834.47;;;28.85;46.07
39301;BME280;25019;42.626;23.380;2023-08-21T05:31:30;94833.88;;;29.12;45.05
39301;BME280;25019;42.626;23.380;2023-08-21T05:33:56;94820.00;;;29.21;44.62
39301;BME280;25019;42.626;23.380;2023-08-21T05:36:22;94794.16;;;29.18;44.59
39301;BME280;25019;42.626;23.380;2023-08-21T05:38:48;94826.03;;;29.66;44.70
39301;BME280;25019;42.626;23.380;2023-08-21T05:41:17;94826.34;;;29.84;43.80
39301;BME280;25019;42.626;23.380;2023-08-21T05:43:43;94831.75;;;30.00;43.75
39301;BME280;25019;42.626;23.380;2023-08-21T05:46:11;94831.59;;;30.12;43.29
39301;BME280;25019;42.626;23.380;2023-08-21T05:48:37;94831.84;;;30.03;42.51
39301;BME280;25019;42.626;23.380;2023-08-21T05:51:03;94812.78;;;29.91;43.07
39301;BME280;25019;42.626;23.380;2023-08-21T05:53:30;94822.97;;;29.90;42.41
39301;BME280;25019;42.626;23.380;2023-08-21T05:55:56;94825.41;;;29.96;43.35
39301;BME280;25019;42.626;23.380;2023-08-21T05:58:22;94778.47;;;29.74;42.06
39301;BME280;25019;42.626;23.380;2023-08-21T06:00:48;94828.88;;;29.73;42.40
39301;BME280;25019;42.626;23.380;2023-08-21T06:03:14;94827.88;;;29.62;42.58
39301;BME280;25019;42.626;23.380;2023-08-21T06:06:03;94832.91;;;29.04;43.25
39301;BME280;25019;42.626;23.380;2023-08-21T06:08:29;94744.94;;;27.99;44.62
39301;BME280;25019;42.626;23.380;2023-08-21T06:10:54;94787.16;;;28.17;45.02
39301;BME280;25019;42.626;23.380;2023-08-21T06:13:21;94779.19;;;27.80;45.16
39301;BME280;25019;42.626;23.380;2023-08-21T06:15:49;94822.75;;;27.48;46.55
39301;BME280;25019;42.626;23.380;2023-08-21T06:18:15;94837.06;;;27.32;46.91
39301;BME280;25019;42.626;23.380;2023-08-21T06:20:44;94842.16;;;26.93;47.01
39301;BME280;25019;42.626;23.380;2023-08-21T06:23:10;94751.66;;;25.88;48.44
39301;BME280;25019;42.626;23.380;2023-08-21T06:25:36;94793.84;;;25.94;48.79
39301;BME280;25019;42.626;23.380;2023-08-21T06:28:03;94841.94;;;26.02;49.74
39301;BME280;25019;42.626;23.380;2023-08-21T06:30:28;94850.56;;;26.05;49.88
39301;BME280;25019;42.626;23.380;2023-08-21T06:32:55;94854.00;;;26.14;49.84
39301;BME280;25019;42.626;23.380;2023-08-21T06:35:21;94838.41;;;26.02;50.29
39301;BME280;25019;42.626;23.380;2023-08-21T06:37:47;94848.72;;;26.09;50.26
39301;BME280;25019;42.626;23.380;2023-08-21T06:40:13;94851.03;;;26.07;50.23
39301;BME280;25019;42.626;23.380;2023-08-21T06:42:38;94841.34;;;25.97;50.83
39301;BME280;25019;42.626;23.380;2023-08-21T06:45:05;94858.72;;;26.05;50.12
39301;BME280;25019;42.626;23.380;2023-08-21T06:47:32;94817.03;;;25.79;50.38
39301;BME280;25019;42.626;23.380;2023-08-21T06:49:57;94854.72;;;26.02;49.96
39301;BME280;25019;42.626;23.380;2023-08-21T06:52:23;94846.75;;;25.84;50.27
39301;BME280;25019;42.626;23.380;2023-08-21T06:54:49;94847.44;;;25.81;51.05
39301;BME280;25019;42.626;23.380;2023-08-21T06:57:14;94855.69;;;25.85;50.50
39301;BME280;25019;42.626;23.380;2023-08-21T06:59:40;94847.06;;;25.83;50.54
39301;BME280;25019;42.626;23.380;2023-08-21T07:02:06;94855.50;;;25.90;51.10
39301;BME280;25019;42.626;23.380;2023-08-21T07:04:32;94791.69;;;25.54;50.23
39301;BME280;25019;42.626;23.380;2023-08-21T07:07:00;94768.50;;;25.35;50.62
39301;BME280;25019;42.626;23.380;2023-08-21T07:09:26;94851.09;;;25.98;50.99
39301;BME280;25019;42.626;23.380;2023-08-21T07:11:51;94832.72;;;25.95;50.88
39301;BME280;25019;42.626;23.380;2023-08-21T07:14:17;94847.56;;;26.19;50.99
39301;BME280;25019;42.626;23.380;2023-08-21T07:16:43;94850.38;;;26.22;50.60
39301;BME280;25019;42.626;23.380;2023-08-21T07:19:09;94811.31;;;25.93;50.39
39301;BME280;25019;42.626;23.380;2023-08-21T07:21:35;94848.34;;;26.19;51.37
39301;BME280;25019;42.626;23.380;2023-08-21T07:24:02;94828.84;;;26.17;51.23
39301;BME280;25019;42.626;23.380;2023-08-21T07:26:28;94834.66;;;26.40;51.16
39301;BME280;25019;42.626;23.380;2023-08-21T07:28:54;94740.00;;;25.87;50.65
39301;BME280;25019;42.626;23.380;2023-08-21T07:31:20;94847.13;;;26.54;49.93
39301;BME280;25019;42.626;23.380;2023-08-21T07:33:45;94784.50;;;26.16;49.86
39301;BME280;25019;42.626;23.380;2023-08-21T07:36:11;94839.53;;;26.59;49.78
39301;BME280;25019;42.626;23.380;2023-08-21T07:38:43;94747.84;;;26.01;50.43
39301;BME280;25019;42.626;23.380;2023-08-21T07:41:10;94842.72;;;26.74;50.42
39301;BME280;25019;42.626;23.380;2023-08-21T07:43:37;94834.56;;;26.86;49.89
39301;BME280;25019;42.626;23.380;2023-08-21T07:46:04;94835.81;;;26.89;49.16
39301;BME280;25019;42.626;23.380;2023-08-21T07:48:30;94824.19;;;26.80;49.43
39301;BME280;25019;42.626;23.380;2023-08-21T07:50:56;94834.22;;;27.00;48.67
39301;BME280;25019;42.626;23.380;2023-08-21T07:53:22;94835.09;;;27.04;48.93
39301;BME280;25019;42.626;23.380;2023-08-21T07:55:48;94828.72;;;27.13;48.03
39301;BME280;25019;42.626;23.380;2023-08-21T07:58:14;94828.25;;;27.23;48.21
39301;BME280;25019;42.626;23.380;2023-08-21T08:00:40;94831.63;;;27.32;47.91
39301;BME280;25019;42.626;23.380;2023-08-21T08:03:08;94828.19;;;27.35;48.15
39301;BME280;25019;42.626;23.380;2023-08-21T08:05:34;94827.50;;;27.51;47.42
39301;BME280;25019;42.626;23.380;2023-08-21T08:08:00;94731.88;;;27.03;46.81
39301;BME280;25019;42.626;23.380;2023-08-21T08:10:26;94818.69;;;27.70;46.30
39301;BME280;25019;42.626;23.380;2023-08-21T08:12:51;94822.03;;;27.79;45.25
39301;BME280;25019;42.626;23.380;2023-08-21T08:15:21;94821.53;;;27.90;44.93
39301;BME280;25019;42.626;23.380;2023-08-21T08:17:46;94823.22;;;27.94;45.14
39301;BME280;25019;42.626;23.380;2023-08-21T08:20:13;94815.91;;;27.99;44.96
39301;BME280;25019;42.626;23.380;2023-08-21T08:22:41;94818.38;;;28.04;45.37
39301;BME280;25019;42.626;23.380;2023-08-21T08:25:07;94820.03;;;27.92;45.31
39301;BME280;25019;42.626;23.380;2023-08-21T08:27:33;94813.53;;;27.97;45.41
39301;BME280;25019;42.626;23.380;2023-08-21T08:29:58;94819.84;;;28.14;44.47
39301;BME280;25019;42.626;23.380;2023-08-21T08:32:25;94819.13;;;28.17;44.44
39301;BME280;25019;42.626;23.380;2023-08-21T08:34:52;94773.13;;;28.03;44.44
39301;BME280;25019;42.626;23.380;2023-08-21T08:37:18;94806.00;;;28.22;43.71
39301;BME280;25019;42.626;23.380;2023-08-21T08:39:46;94801.78;;;28.25;44.13
39301;BME280;25019;42.626;23.380;2023-08-21T08:42:12;94803.91;;;28.32;43.64
39301;BME280;25019;42.626;23.380;2023-08-21T08:44:39;94805.47;;;28.49;43.95
39301;BME280;25019;42.626;23.380;2023-08-21T08:47:07;94799.91;;;28.61;43.98
39301;BME280;25019;42.626;23.380;2023-08-21T08:49:33;94799.19;;;28.64;42.07
39301;BME280;25019;42.626;23.380;2023-08-21T08:51:59;94701.03;;;28.04;42.78
39301;BME280;25019;42.626;23.380;2023-08-21T08:54:25;94790.13;;;28.76;42.83
39301;BME280;25019;42.626;23.380;2023-08-21T08:56:52;94741.78;;;28.45;41.89
39301;BME280;25019;42.626;23.380;2023-08-21T08:59:18;94784.38;;;28.81;41.60
39301;BME280;25019;42.626;23.380;2023-08-21T09:01:43;94779.03;;;28.85;42.17
39301;BME280;25019;42.626;23.380;2023-08-21T09:04:09;94790.09;;;28.92;41.55
39301;BME280;25019;42.626;23.380;2023-08-21T09:06:35;94790.31;;;29.03;41.58
39301;BME280;25019;42.626;23.380;2023-08-21T09:09:01;94738.09;;;28.73;40.93
39301;BME280;25019;42.626;23.380;2023-08-21T09:11:27;94790.81;;;28.89;40.22
39301;BME280;25019;42.626;23.380;2023-08-21T09:13:54;94795.97;;;28.75;41.29
39301;BME280;25019;42.626;23.380;2023-08-21T09:16:21;94793.47;;;28.69;40.77
39301;BME280;25019;42.626;23.380;2023-08-21T09:18:52;94785.34;;;28.89;41.54
39301;BME280;25019;42.626;23.380;2023-08-21T09:21:21;94781.50;;;29.10;41.14
39301;BME280;25019;42.626;23.380;2023-08-21T09:23:48;94785.66;;;29.23;39.40
39301;BME280;25019;42.626;23.380;2023-08-21T09:26:20;94779.19;;;29.32;39.84
39301;BME280;25019;42.626;23.380;2023-08-21T09:28:50;94786.13;;;29.45;39.74
39301;BME280;25019;42.626;23.380;2023-08-21T09:31:29;94773.81;;;29.55;39.13
39301;BME280;25019;42.626;23.380;2023-08-21T09:33:56;94774.31;;;29.60;38.49
39301;BME280;25019;42.626;23.380;2023-08-21T09:36:22;94774.75;;;29.63;38.39
39301;BME280;25019;42.626;23.380;2023-08-21T09:38:51;94769.38;;;29.70;38.63
39301;BME280;25019;42.626;23.380;2023-08-21T09:41:21;94772.25;;;29.77;38.34
39301;BME280;25019;42.626;23.380;2023-08-21T09:43:47;94770.38;;;29.81;38.05
39301;BME280;25019;42.626;23.380;2023-08-21T09:46:17;94768.25;;;29.71;38.06
39301;BME280;25019;42.626;23.380;2023-08-21T09:48:49;94724.59;;;29.55;37.08
39301;BME280;25019;42.626;23.380;2023-08-21T09:51:15;94759.94;;;29.87;36.92
39301;BME280;25019;42.626;23.380;2023-08-21T09:53:41;94771.50;;;29.77;36.69
39301;BME280;25019;42.626;23.380;2023-08-21T09:56:08;94764.66;;;29.67;37.54
39301;BME280;25019;42.626;23.380;2023-08-21T09:58:35;94754.88;;;29.89;37.21
39301;BME280;25019;42.626;23.380;2023-08-21T10:01:04;94754.22;;;29.96;38.14
39301;BME280;25019;42.626;23.380;2023-08-21T10:03:38;94721.72;;;29.94;38.05
39301;BME280;25019;42.626;23.380;2023-08-21T10:06:04;94690.53;;;29.75;36.88
39301;BME280;25019;42.626;23.380;2023-08-21T10:08:33;94744.34;;;30.11;36.60
39301;BME280;25019;42.626;23.380;2023-08-21T10:11:04;94738.31;;;30.25;36.42
39301;BME280;25019;42.626;23.380;2023-08-21T10:13:32;94746.03;;;30.19;36.22
39301;BME280;25019;42.626;23.380;2023-08-21T10:15:58;94735.56;;;30.01;36.32
39301;BME280;25019;42.626;23.380;2023-08-21T10:18:30;94704.47;;;29.67;36.54
39301;BME280;25019;42.626;23.380;2023-08-21T10:20:56;94710.25;;;30.08;35.92
39301;BME280;25019;42.626;23.380;2023-08-21T10:23:36;94739.59;;;30.08;37.00
39301;BME280;25019;42.626;23.380;2023-08-21T10:26:06;94738.50;;;30.12;36.83
39301;BME280;25019;42.626;23.380;2023-08-21T10:28:59;94715.31;;;30.33;35.68
39301;BME280;25019;42.626;23.380;2023-08-21T10:34:08;94713.25;;;30.49;35.93
39301;BME280;25019;42.626;23.380;2023-08-21T10:39:25;94713.28;;;30.53;35.17
39301;BME280;25019;42.626;23.380;2023-08-21T10:42:02;94715.09;;;30.69;35.07
39301;BME280;25019;42.626;23.380;2023-08-21T10:47:18;94692.19;;;30.84;35.91
39301;BME280;25019;42.626;23.380;2023-08-21T10:49:45;94690.09;;;31.04;34.92
39301;BME280;25019;42.626;23.380;2023-08-21T10:52:11;94702.16;;;31.00;34.52
39301;BME280;25019;42.626;23.380;2023-08-21T10:54:54;94695.66;;;31.12;34.48
39301;BME280;25019;42.626;23.380;2023-08-21T10:57:21;94691.72;;;31.09;34.58
39301;BME280;25019;42.626;23.380;2023-08-21T10:59:54;94687.06;;;31.47;34.33
39301;BME280;25019;42.626;23.380;2023-08-21T11:02:20;94681.28;;;31.56;34.04
39301;BME280;25019;42.626;23.380;2023-08-21T11:04:48;94674.28;;;31.62;33.82
39301;BME280;25019;42.626;23.380;2023-08-21T11:07:13;94681.19;;;31.87;33.43
39301;BME280;25019;42.626;23.380;2023-08-21T11:09:39;94684.22;;;31.74;33.44
39301;BME280;25019;42.626;23.380;2023-08-21T11:12:16;94685.59;;;31.98;32.91
39301;BME280;25019;42.626;23.380;2023-08-21T11:14:42;94682.16;;;32.09;33.24
39301;BME280;25019;42.626;23.380;2023-08-21T11:17:09;94618.25;;;31.71;33.27
39301;BME280;25019;42.626;23.380;2023-08-21T11:19:35;94681.75;;;31.65;33.65
39301;BME280;25019;42.626;23.380;2023-08-21T11:22:02;94673.16;;;31.71;33.86
39301;BME280;25019;42.626;23.380;2023-08-21T11:27:06;94668.00;;;31.62;33.10
39301;BME280;25019;42.626;23.380;2023-08-21T11:29:40;94679.28;;;31.53;33.63
39301;BME280;25019;42.626;23.380;2023-08-21T11:34:36;94667.50;;;31.15;33.45
39301;BME280;25019;42.626;23.380;2023-08-21T11:37:03;94657.47;;;31.26;32.85
39301;BME280;25019;42.626;23.380;2023-08-21T11:39:44;94646.59;;;31.03;32.69
39301;BME280;25019;42.626;23.380;2023-08-21T11:42:11;94654.78;;;30.99;32.58
39301;BME280;25019;42.626;23.380;2023-08-21T11:44:51;94658.84;;;31.13;32.46
39301;BME280;25019;42.626;23.380;2023-08-21T11:47:19;94657.00;;;31.20;31.95
39301;BME280;25019;42.626;23.380;2023-08-21T11:49:46;94656.47;;;31.45;31.80
39301;BME280;25019;42.626;23.380;2023-08-21T11:52:20;94652.28;;;31.59;31.73
39301;BME280;25019;42.626;23.380;2023-08-21T11:54:50;94650.75;;;31.61;31.11
39301;BME280;25019;42.626;23.380;2023-08-21T11:57:16;94659.00;;;31.65;31.46
39301;BME280;25019;42.626;23.380;2023-08-21T11:59:42;94646.56;;;31.33;31.85
39301;BME280;25019;42.626;23.380;2023-08-21T12:02:17;94649.97;;;31.23;32.45
39301;BME280;25019;42.626;23.380;2023-08-21T12:04:43;94642.03;;;31.14;32.27
39301;BME280;25019;42.626;23.380;2023-08-21T12:07:09;94639.41;;;31.25;31.73
39301;BME280;25019;42.626;23.380;2023-08-21T12:09:35;94636.53;;;31.52;31.57
39301;BME280;25019;42.626;23.380;2023-08-21T12:12:01;94646.84;;;31.62;31.48
39301;BME280;25019;42.626;23.380;2023-08-21T12:14:28;94600.59;;;31.23;31.43
39301;BME280;25019;42.626;23.380;2023-08-21T12:16:54;94637.97;;;31.76;31.12
39301;BME280;25019;42.626;23.380;2023-08-21T12:19:22;94635.31;;;31.87;31.07
39301;BME280;25019;42.626;23.380;2023-08-21T12:21:48;94629.00;;;31.83;30.98
39301;BME280;25019;42.626;23.380;2023-08-21T12:24:14;94624.88;;;31.62;30.88
39301;BME280;25019;42.626;23.380;2023-08-21T12:26:40;94643.50;;;31.42;31.41
39301;BME280;25019;42.626;23.380;2023-08-21T12:29:06;94628.78;;;31.61;31.47
39301;BME280;25019;42.626;23.380;2023-08-21T12:31:31;94630.94;;;31.82;31.14
39301;BME280;25019;42.626;23.380;2023-08-21T12:33:57;94636.00;;;31.77;31.55
39301;BME280;25019;42.626;23.380;2023-08-21T12:36:23;94595.28;;;31.41;30.68
39301;BME280;25019;42.626;23.380;2023-08-21T12:38:49;94635.28;;;31.42;31.66
39301;BME280;25019;42.626;23.380;2023-08-21T12:41:15;94609.09;;;31.14;32.03
39301;BME280;25019;42.626;23.380;2023-08-21T12:43:40;94632.38;;;31.28;31.07
39301;BME280;25019;42.626;23.380;2023-08-21T12:46:06;94638.13;;;31.57;31.56
39301;BME280;25019;42.626;23.380;2023-08-21T12:48:32;94625.63;;;31.59;30.68
39301;BME280;25019;42.626;23.380;2023-08-21T12:50:57;94627.16;;;31.57;31.30
39301;BME280;25019;42.626;23.380;2023-08-21T12:53:23;94581.47;;;31.30;30.74
39301;BME280;25019;42.626;23.380;2023-08-21T12:55:49;94611.63;;;31.72;30.37
39301;BME280;25019;42.626;23.380;2023-08-21T12:58:15;94609.59;;;31.61;31.35
39301;BME280;25019;42.626;23.380;2023-08-21T13:00:40;94611.28;;;31.73;31.22
39301;BME280;25019;42.626;23.380;2023-08-21T13:03:06;94606.22;;;31.82;30.80